Flight Track Log - Related Links

Times and Time Zones

All times are in EDT time to prevent confusion due to time zone crossing. See the N28SP flight status page for this flight to view local times or setup timezone preferences in your user account.

Time Position Orientation Groundspeed Altitude Reporting Facility
EDT Latitude Longitude Course Direction KTS MPH feet Rate Location/Type
Fri 02:18:48 PM 53.2833 -60.4667 321° Northwest 180 207 3,000  Level Gander Center
Fri 02:19:48 PM 53.3333 -60.5333 321° Northwest 190 219 6,400 3,350 Climbing Gander Center
Fri 02:20:48 PM 53.3667 -60.4667 333° Northwest 230 265 9,700 3,400 Climbing Gander Center
Fri 02:21:48 PM 53.4167 -60.3500 54° Northeast 250 288 13,200 3,050 Climbing Gander Center
Fri 02:22:48 PM 53.4667 -60.2667 45° Northeast 280 322 15,800 2,400 Climbing Gander Center
Fri 02:23:48 PM 53.5167 -60.2167 31° Northeast 270 311 18,000 2,200 Climbing Gander Center
Fri 02:24:48 PM 53.5667 -60.1000 54° Northeast 280 322 20,200 2,200 Climbing Gander Center
Fri 02:25:48 PM 53.6333 -59.9833 46° Northeast 320 368 22,400 2,250 Climbing Gander Center
Fri 02:26:48 PM 53.7167 -59.9000 31° Northeast 330 380 24,700 2,200 Climbing Gander Center
Fri 02:27:48 PM 53.7833 -59.7833 46° Northeast 330 380 26,800 2,100 Climbing Gander Center
Fri 02:28:48 PM 53.8500 -59.6667 46° Northeast 330 380 28,900 2,000 Climbing Gander Center
Fri 02:29:48 PM 53.9167 -59.5833 36° Northeast 330 380 30,800 1,700 Climbing Gander Center
Fri 02:30:48 PM 53.9833 -59.4833 41° Northeast 320 368 32,300 1,300 Climbing Gander Center
Fri 02:31:48 PM 54.0500 -59.3667 46° Northeast 330 380 33,400 1,200 Climbing Gander Center
Fri 02:32:48 PM 54.1167 -59.2500 46° Northeast 330 380 34,700 1,200 Climbing Gander Center
Fri 02:33:48 PM 54.1833 -59.1667 36° Northeast 330 380 35,800 900 Climbing Gander Center
Fri 02:34:48 PM 54.2500 -59.0500 46° Northeast 330 380 36,500 650 Climbing Gander Center
Fri 02:35:48 PM 54.3333 -58.9667 30° Northeast 330 380 37,100 650 Climbing Gander Center
Fri 02:36:48 PM 54.3833 -58.8500 54° Northeast 340 391 37,800 650 Climbing Gander Center
Fri 02:37:48 PM 54.4500 -58.7167 49° Northeast 340 391 38,400 600 Climbing Gander Center
Fri 02:38:48 PM 54.5333 -58.6000 39° Northeast 340 391 39,000 550 Climbing Gander Center
Fri 02:39:48 PM 54.6000 -58.5167 36° Northeast 330 380 39,500 550 Climbing Gander Center
Fri 02:40:48 PM 54.6667 -58.4000 45° Northeast 330 380 40,100 450 Climbing Gander Center
Fri 02:41:48 PM 54.7333 -58.3000 41° Northeast 330 380 40,400 300 Climbing Gander Center
Fri 02:42:48 PM 54.8000 -58.1833 45° Northeast 330 380 40,700 300 Climbing Gander Center
Fri 02:43:48 PM 54.8500 -58.0667 53° Northeast 330 380 41,000 150 Climbing Gander Center
Fri 02:44:48 PM 54.9333 -57.9667 35° Northeast 340 391 41,000  Level Gander Center
Fri 02:45:48 PM 55.0000 -57.8500 45° Northeast 350 403 41,000  Level Gander Center
Fri 02:46:48 PM 55.0667 -57.7167 49° Northeast 350 403 41,000  Level Gander Center
Fri 02:47:48 PM 55.1500 -57.6000 39° Northeast 360 414 41,000  Level Gander Center
Fri 02:48:48 PM 55.2333 -57.4667 42° Northeast 360 414 41,000  Level Gander Center
Fri 02:49:48 PM 55.2833 -57.3500 53° Northeast 370 426 41,000  Level Gander Center
Fri 02:50:48 PM 55.3667 -57.2167 42° Northeast 370 426 41,000  Level Gander Center
Fri 02:51:48 PM 55.4500 -57.1000 38° Northeast 370 426 41,000  Level Gander Center
Fri 02:52:00 PM 55.5167 -57.0167 54° Northeast 358 412 41,000  Level ETMS Enhanced Traffic Management System
Fri 02:52:48 PM 55.5167 -56.9667 54° Northeast 370 426 41,000  Level Gander Center
Fri 02:53:48 PM 55.5667 -56.8167 59° Northeast 370 426 41,000  Level Gander Center
Fri 02:54:48 PM 55.6333 -56.6667 52° Northeast 380 437 41,000  Level Gander Center
Fri 02:55:48 PM 55.7000 -56.5167 52° Northeast 370 426 41,000  Level Gander Center
Fri 02:56:48 PM 55.7500 -56.3833 56° Northeast 370 426 41,000  Level Gander Center
Fri 02:57:48 PM 55.8167 -56.2333 52° Northeast 370 426 41,000  Level Gander Center
Fri 02:58:48 PM 55.8833 -56.0667 54° Northeast 370 426 41,000  Level Gander Center
Fri 02:59:48 PM 55.9333 -55.9167 59° Northeast 370 426 41,000  Level Gander Center
Fri 03:00:48 PM 55.9833 -55.7833 56° Northeast 360 414 41,000  Level Gander Center
Fri 03:01:48 PM 56.0500 -55.6333 51° Northeast 360 414 41,000  Level Gander Center
Fri 03:02:48 PM 56.1000 -55.4667 62° Northeast 360 414 41,000  Level Gander Center
Fri 03:03:48 PM 56.1500 -55.3500 52° Northeast 360 414 41,000  Level Gander Center
Fri 03:04:48 PM 56.2000 -55.1833 62° Northeast 360 414 41,000  Level Gander Center
Fri 03:05:48 PM 56.2667 -55.0500 48° Northeast 350 403 41,000  Level Gander Center
Fri 03:06:48 PM 56.3333 -54.9000 51° Northeast 360 414 41,000  Level Gander Center
Fri 03:07:48 PM 56.3667 -54.7333 70° East 350 403 41,000  Level Gander Center
Fri 03:08:48 PM 56.4333 -54.6000 48° Northeast 370 426 41,000  Level Gander Center
Fri 03:09:48 PM 56.4833 -54.4667 56° Northeast 360 414 41,000  Level Gander Center
Fri 03:10:48 PM 56.5500 -54.3167 51° Northeast 360 414 41,000  Level Gander Center
Fri 03:11:48 PM 56.6000 -54.1833 56° Northeast 350 403 41,000  Level Gander Center
Fri 03:12:48 PM 56.6500 -53.9833 65° Northeast 360 414 41,000  Level Gander Center
Fri 03:13:48 PM 56.7167 -53.8833 39° Northeast 360 414 41,000  Level Gander Center
Fri 03:14:48 PM 56.7667 -53.7167 61° Northeast 350 403 41,000  Level Gander Center
Fri 03:15:48 PM 56.8000 -53.5000 74° East 370 426 41,000  Level Gander Center
Fri 03:16:48 PM 56.8667 -53.3667 48° Northeast 370 426 41,000  Level Gander Center
Fri 03:17:48 PM 56.9333 -53.2333 47° Northeast 370 426 41,000  Level Gander Center
Fri 03:18:48 PM 57.0000 -53.0833 51° Northeast 370 426 41,000  Level Gander Center
Fri 03:19:48 PM 57.0333 -52.9000 71° East 360 414 41,000  Level Gander Center
Fri 03:38:49 PM 58.0000 -50.0000 55° Northeast 353 406 41,000  Level ETMS Enhanced Traffic Management System
Fri 04:36:00 PM 61.0000 -40.0000 63° Northeast 366 421 41,000  Level ETMS Enhanced Traffic Management System
Fri 05:23:00 PM 63.0000 -30.0000 70° East 398 458 41,000  Level ETMS Enhanced Traffic Management System
Fri 05:23:45 PM 63.0000 -30.0000 70° East 398 458 41,000  Level ETMS Enhanced Traffic Management System
Fri 05:24:00 PM 62.9673 -30.2125 71° East 366 421 41,000  Level FlightAware Transoceanic
Fri 05:25:00 PM 62.9995 -30.0031 71° East  Level FlightAware Approximate
Fri 05:26:00 PM 63.0314 -29.7931 71° East  Level FlightAware Approximate
Fri 05:27:00 PM 63.0324 -29.7973 70° East  Level FlightAware Approximate
Fri 05:28:00 PM 63.0655 -29.5881 71° East  Level FlightAware Approximate
Fri 05:29:00 PM 63.2234 -28.6122 71° East 398 458 41,000  Level FlightAware Transoceanic
Fri 05:30:00 PM 63.2593 -28.3788 71° East 398 458 41,000  Level FlightAware Transoceanic
Fri 05:31:00 PM 63.2948 -28.1449 71° East 398 458 41,000  Level FlightAware Transoceanic
Fri 05:32:00 PM 63.3300 -27.9104 72° East 398 458 41,000  Level FlightAware Transoceanic
Fri 05:33:00 PM 63.3647 -27.6753 72° East 398 458 41,000  Level FlightAware Transoceanic
Fri 05:34:00 PM 63.3991 -27.4396 72° East 398 458 41,000  Level FlightAware Transoceanic
Fri 05:35:00 PM 63.4331 -27.2034 72° East 398 458 41,000  Level FlightAware Transoceanic
Fri 05:36:00 PM 63.4635 -26.9893 72° East  Level FlightAware Approximate
Fri 05:37:00 PM 63.4936 -26.7746 72° East  Level FlightAware Approximate
Fri 05:38:00 PM 63.4841 -26.7930 77° East  Level FlightAware Approximate
Fri 05:39:00 PM 63.5123 -26.5783 63° Northeast  Level FlightAware Approximate
Fri 05:40:00 PM 63.5461 -26.3675 76° East  Level FlightAware Approximate
Fri 05:41:00 PM 63.5699 -26.1483 76° East  Level FlightAware Approximate
Fri 05:42:00 PM 63.5934 -25.9288 76° East  Level FlightAware Approximate
Fri 05:43:00 PM 63.6223 -25.7125 72° East  Level FlightAware Approximate
Fri 05:44:00 PM 63.6531 -25.4972 72° East  Level FlightAware Approximate
Fri 05:45:00 PM 63.6836 -25.2814 76° East  Level FlightAware Approximate
Fri 05:46:00 PM 63.7081 -25.0616 76° East  Level FlightAware Approximate
Fri 05:47:00 PM 63.7323 -24.8414 76° East  Level FlightAware Approximate
Fri 05:48:00 PM 63.7562 -24.6209 76° East  Level FlightAware Approximate
Fri 05:49:00 PM 63.7798 -24.4000 76° East  Level FlightAware Approximate
Fri 05:50:00 PM 63.8097 -24.1829 72° East  Level FlightAware Approximate
Fri 05:51:00 PM 63.8388 -23.9650 77° East  Level FlightAware Approximate
Fri 05:52:00 PM 63.8618 -23.7432 77° East  Level FlightAware Approximate
Fri 05:53:00 PM 63.8845 -23.5210 78° East  Level FlightAware Approximate
Fri 05:54:00 PM 63.9049 -23.2974 78° East  Level FlightAware Approximate
Fri 05:55:00 PM 63.9233 -23.0736 76° East  Level FlightAware Approximate
Fri 05:56:00 PM 63.9454 -22.8506 78° East  Level FlightAware Approximate
Fri 05:57:00 PM 63.9658 -22.6266 78° East  Level FlightAware Approximate
Fri 05:58:00 PM 63.9667 -22.6167 78° East  Level FlightAware Approximate
Fri 05:59:00 PM 63.9850 -22.6056 78° East  Level Estimated
Fri 06:00:00 PM 63.9850 -22.6056 78° East  Level Estimated
Fri 06:01:00 PM 63.9850 -22.6056 78° East  Level Estimated
Fri 06:02:00 PM 63.9850 -22.6056 78° East  Level Estimated
Fri 06:03:00 PM 63.9850 -22.6056 78° East  Level Estimated
Fri 06:04:00 PM 63.9850 -22.6056 78° East  Level Estimated
Fri 06:05:00 PM 63.9850 -22.6056 78° East  Level Estimated
Fri 06:06:00 PM 63.9850 -22.6056 78° East  Level Estimated
Fri 06:07:00 PM 63.9850 -22.6056 78° East  Level Estimated
Fri 06:08:00 PM 63.9850 -22.6056 78° East  Level Estimated
Fri 06:09:00 PM 63.9850 -22.6056 78° East  Level Estimated
Fri 06:10:00 PM 63.9850 -22.6056 78° East  Level Estimated
Fri 06:11:00 PM 63.9850 -22.6056 78° East  Level Estimated
Fri 06:12:00 PM 63.9850 -22.6056 78° East  Level Estimated
Fri 06:13:00 PM 63.9850 -22.6056 78° East  Level Estimated
Fri 06:14:00 PM 63.9850 -22.6056 78° East  Level Estimated
Fri 06:15:00 PM 63.9850 -22.6056 78° East  Level Estimated

Login

Don't have an account? Register now (free) for customized features, flight alerts, and more!